Time;durP1;ratioP1;P1;durP2;ratioP2;P2;SDS_P1;SDS_P2;PMS_P1;PMS_P2;Temp;Humidity;BMP_temperature;BMP_pressure;BME280_temperature;BME280_humidity;BME280_pressure;Samples;Min_cycle;Max_cycle;Signal;HPM_P1;HPM_P2
2021/07/03 00:01:07;;;;;;;;;;;22.00;54.20;;;;;;516229;230;959;-73
2021/07/03 00:03:09;;;;;;;;;;;21.90;54.30;;;;;;516262;230;1026;-73
2021/07/03 00:05:10;;;;;;;;;;;22.00;54.40;;;;;;516279;231;1141;-73
2021/07/03 00:07:11;;;;;;;;;;;22.10;54.20;;;;;;516220;231;2168;-73
2021/07/03 00:09:13;;;;;;;;;;;22.00;54.10;;;;;;516270;230;1033;-73
2021/07/03 00:11:14;;;;;;;;;;;22.00;54.10;;;;;;516399;230;978;-73
2021/07/03 00:13:15;;;;;;;;;;;22.10;54.00;;;;;;516369;230;908;-73
2021/07/03 00:15:20;;;;;;;;;;;22.10;54.00;;;;;;516294;231;1193;-73
2021/07/03 00:17:18;;;;;;;;;;;22.00;54.20;;;;;;516006;230;1278;-73
2021/07/03 00:19:20;;;;;;;;;;;22.10;54.00;;;;;;516305;231;1043;-73
2021/07/03 00:21:21;;;;;;;;;;;22.10;54.00;;;;;;516328;230;1124;-73
2021/07/03 00:23:22;;;;;;;;;;;22.10;54.10;;;;;;516477;230;1021;-73
2021/07/03 00:25:23;;;;;;;;;;;22.00;54.30;;;;;;516366;231;1031;-73
2021/07/03 00:27:25;;;;;;;;;;;22.00;54.30;;;;;;516210;230;2168;-73
2021/07/03 00:29:26;;;;;;;;;;;22.10;54.20;;;;;;516331;230;1101;-73
2021/07/03 00:31:27;;;;;;;;;;;22.00;54.10;;;;;;516344;230;957;-73
2021/07/03 00:33:29;;;;;;;;;;;22.10;54.10;;;;;;516374;230;984;-73
2021/07/03 00:35:30;;;;;;;;;;;22.00;54.10;;;;;;516307;230;1112;-73
2021/07/03 00:37:32;;;;;;;;;;;22.00;54.10;;;;;;516287;231;1131;-73
2021/07/03 00:39:33;;;;;;;;;;;22.00;54.20;;;;;;516305;231;1223;-73
2021/07/03 00:41:34;;;;;;;;;;;22.00;54.30;;;;;;516274;230;1018;-73
2021/07/03 00:43:35;;;;;;;;;;;22.00;54.40;;;;;;516464;230;1151;-73
2021/07/03 00:45:37;;;;;;;;;;;22.00;54.20;;;;;;516430;230;1102;-73
2021/07/03 00:47:38;;;;;;;;;;;22.10;54.10;;;;;;516452;230;2105;-73
2021/07/03 00:49:39;;;;;;;;;;;22.00;54.20;;;;;;516391;231;1238;-73
2021/07/03 00:51:41;;;;;;;;;;;22.00;54.10;;;;;;516287;231;1110;-73
2021/07/03 00:53:42;;;;;;;;;;;22.00;54.20;;;;;;516450;230;1012;-73
2021/07/03 00:55:43;;;;;;;;;;;22.00;54.10;;;;;;516343;230;1199;-73
2021/07/03 00:57:45;;;;;;;;;;;22.10;54.10;;;;;;516218;231;1070;-73
2021/07/03 00:59:46;;;;;;;;;;;22.00;54.20;;;;;;516278;230;1022;-73
2021/07/03 01:01:47;;;;;;;;;;;22.00;54.00;;;;;;516256;231;1046;-73
2021/07/03 01:03:49;;;;;;;;;;;22.10;54.00;;;;;;516310;231;1097;-73
2021/07/03 01:05:50;;;;;;;;;;;22.00;54.00;;;;;;516460;230;1143;-73
2021/07/03 01:07:51;;;;;;;;;;;22.10;54.00;;;;;;516269;231;2176;-73
2021/07/03 01:09:53;;;;;;;;;;;22.10;53.80;;;;;;516359;230;1079;-73
2021/07/03 01:11:54;;;;;;;;;;;22.00;53.80;;;;;;516381;230;988;-73
2021/07/03 01:13:55;;;;;;;;;;;22.10;53.80;;;;;;516348;231;1070;-73
2021/07/03 01:15:57;;;;;;;;;;;22.10;53.90;;;;;;516409;230;1062;-73
2021/07/03 01:17:58;;;;;;;;;;;22.10;53.90;;;;;;516325;230;1076;-73
2021/07/03 01:19:59;;;;;;;;;;;22.00;54.00;;;;;;516436;230;1055;-73
2021/07/03 01:22:01;;;;;;;;;;;22.00;53.90;;;;;;516277;231;1492;-73
2021/07/03 01:24:02;;;;;;;;;;;22.00;54.10;;;;;;516366;230;1033;-73
2021/07/03 01:26:03;;;;;;;;;;;22.00;54.00;;;;;;516300;230;1238;-73
2021/07/03 01:28:05;;;;;;;;;;;22.00;53.90;;;;;;516214;230;953;-73
2021/07/03 01:30:06;;;;;;;;;;;22.10;53.90;;;;;;516253;230;1001;-73
2021/07/03 01:32:07;;;;;;;;;;;22.00;54.10;;;;;;516223;230;967;-73
2021/07/03 01:34:09;;;;;;;;;;;22.00;54.10;;;;;;516451;230;1145;-73
2021/07/03 01:36:10;;;;;;;;;;;22.00;54.00;;;;;;510344;230;1295;-73
2021/07/03 01:38:12;;;;;;;;;;;22.10;53.90;;;;;;515138;231;1045;-73
2021/07/03 01:40:13;;;;;;;;;;;22.00;54.00;;;;;;516515;230;1043;-73
2021/07/03 01:42:14;;;;;;;;;;;22.10;54.10;;;;;;516248;231;986;-73
2021/07/03 01:44:16;;;;;;;;;;;22.00;54.10;;;;;;516398;230;1024;-73
2021/07/03 01:46:17;;;;;;;;;;;22.00;54.10;;;;;;516279;230;2144;-73
2021/07/03 01:48:18;;;;;;;;;;;22.00;54.00;;;;;;516390;230;959;-73
2021/07/03 01:50:20;;;;;;;;;;;22.00;54.00;;;;;;516473;230;948;-73
2021/07/03 01:52:21;;;;;;;;;;;22.00;54.00;;;;;;516284;230;1110;-73
2021/07/03 01:54:22;;;;;;;;;;;22.00;54.10;;;;;;516339;231;1035;-73
2021/07/03 01:56:24;;;;;;;;;;;22.00;54.10;;;;;;516288;231;978;-73
2021/07/03 01:58:25;;;;;;;;;;;22.00;54.00;;;;;;516357;230;1002;-73
2021/07/03 02:00:26;;;;;;;;;;;22.00;54.00;;;;;;516323;231;1004;-73
2021/07/03 02:02:27;;;;;;;;;;;22.00;53.80;;;;;;516347;230;941;-73
2021/07/03 02:04:29;;;;;;;;;;;22.00;54.00;;;;;;516310;231;1042;-73
2021/07/03 02:06:30;;;;;;;;;;;22.10;53.90;;;;;;516330;230;2180;-72
2021/07/03 02:08:32;;;;;;;;;;;22.10;53.70;;;;;;516419;230;1052;-72
2021/07/03 02:10:33;;;;;;;;;;;22.30;53.40;;;;;;516361;231;1032;-73
2021/07/03 02:12:34;;;;;;;;;;;22.30;53.20;;;;;;516292;231;1014;-73
2021/07/03 02:14:36;;;;;;;;;;;22.40;52.80;;;;;;516355;230;953;-73
2021/07/03 02:16:37;;;;;;;;;;;22.40;52.80;;;;;;516269;231;981;-73
2021/07/03 02:18:38;;;;;;;;;;;22.30;52.90;;;;;;516252;230;1091;-73
2021/07/03 02:20:40;;;;;;;;;;;22.40;52.80;;;;;;516508;230;1042;-73
2021/07/03 02:22:41;;;;;;;;;;;22.30;52.90;;;;;;516186;231;1189;-73
2021/07/03 02:24:42;;;;;;;;;;;22.30;52.90;;;;;;516411;230;992;-73
2021/07/03 02:26:44;;;;;;;;;;;22.40;52.80;;;;;;516258;230;2157;-73
2021/07/03 02:28:45;;;;;;;;;;;22.40;52.70;;;;;;516391;230;984;-73
2021/07/03 02:30:46;;;;;;;;;;;22.40;52.50;;;;;;516308;231;1024;-73
2021/07/03 02:32:48;;;;;;;;;;;22.40;52.60;;;;;;516269;231;1041;-73
2021/07/03 02:34:49;;;;;;;;;;;22.50;52.40;;;;;;516467;230;1035;-73
2021/07/03 02:36:50;;;;;;;;;;;22.50;52.40;;;;;;516347;230;1235;-73
2021/07/03 02:38:52;;;;;;;;;;;22.50;52.40;;;;;;516238;231;1029;-73
2021/07/03 02:40:53;;;;;;;;;;;22.50;52.20;;;;;;516350;230;934;-73
2021/07/03 02:42:55;;;;;;;;;;;22.50;52.30;;;;;;516302;230;1025;-73
2021/07/03 02:44:56;;;;;;;;;;;22.50;52.30;;;;;;516283;231;1127;-73
2021/07/03 02:46:57;;;;;;;;;;;22.50;52.20;;;;;;516289;230;2129;-73
2021/07/03 02:48:59;;;;;;;;;;;22.40;52.30;;;;;;516236;231;1052;-73
2021/07/03 02:51:00;;;;;;;;;;;22.40;52.40;;;;;;516394;230;997;-73
2021/07/03 02:53:01;;;;;;;;;;;22.40;52.20;;;;;;516329;231;1135;-73
2021/07/03 02:55:03;;;;;;;;;;;22.40;52.20;;;;;;516384;231;917;-73
2021/07/03 02:57:04;;;;;;;;;;;22.50;52.20;;;;;;516299;230;1192;-73
2021/07/03 02:59:05;;;;;;;;;;;22.50;51.90;;;;;;516382;230;947;-73
2021/07/03 03:01:07;;;;;;;;;;;22.50;52.00;;;;;;516299;231;1034;-73
2021/07/03 03:03:08;;;;;;;;;;;22.50;51.90;;;;;;516261;230;1031;-73
2021/07/03 03:05:09;;;;;;;;;;;22.60;52.00;;;;;;516337;231;949;-73
2021/07/03 03:07:10;;;;;;;;;;;22.50;51.90;;;;;;516391;230;2160;-73
2021/07/03 03:09:12;;;;;;;;;;;22.50;51.90;;;;;;516303;231;1026;-73
2021/07/03 03:11:13;;;;;;;;;;;22.50;51.90;;;;;;516338;231;1036;-73
2021/07/03 03:13:15;;;;;;;;;;;22.60;51.90;;;;;;516389;231;1060;-73
2021/07/03 03:15:16;;;;;;;;;;;22.70;51.60;;;;;;516340;231;1030;-73
2021/07/03 03:17:17;;;;;;;;;;;22.60;51.50;;;;;;516357;230;1014;-73
2021/07/03 03:19:19;;;;;;;;;;;22.60;51.70;;;;;;516345;231;967;-73
2021/07/03 03:21:20;;;;;;;;;;;22.50;51.70;;;;;;516455;230;1090;-73
2021/07/03 03:23:21;;;;;;;;;;;22.60;51.70;;;;;;516246;230;1110;-73
2021/07/03 03:25:23;;;;;;;;;;;22.60;51.50;;;;;;516422;230;1056;-73
2021/07/03 03:27:24;;;;;;;;;;;22.60;51.50;;;;;;516278;230;2106;-73
2021/07/03 03:29:25;;;;;;;;;;;22.60;51.50;;;;;;516477;230;988;-73
2021/07/03 03:31:27;;;;;;;;;;;22.60;51.50;;;;;;516261;230;1010;-73
2021/07/03 03:33:28;;;;;;;;;;;22.60;51.60;;;;;;516366;230;1042;-73
2021/07/03 03:35:29;;;;;;;;;;;22.60;51.50;;;;;;516291;231;957;-73
2021/07/03 03:37:31;;;;;;;;;;;22.70;51.40;;;;;;516348;230;1140;-73
2021/07/03 03:39:32;;;;;;;;;;;22.70;51.20;;;;;;516276;231;1049;-73
2021/07/03 03:41:33;;;;;;;;;;;22.70;51.10;;;;;;516277;231;1152;-73
2021/07/03 03:43:35;;;;;;;;;;;22.70;51.20;;;;;;516291;231;1198;-73
2021/07/03 03:45:36;;;;;;;;;;;22.60;51.30;;;;;;516347;230;970;-73
2021/07/03 03:47:37;;;;;;;;;;;22.60;51.30;;;;;;516295;230;2133;-73
2021/07/03 03:49:39;;;;;;;;;;;22.60;51.40;;;;;;516249;231;1053;-73
2021/07/03 03:51:40;;;;;;;;;;;22.60;51.40;;;;;;516340;230;1244;-73
2021/07/03 03:53:41;;;;;;;;;;;22.70;51.20;;;;;;516334;231;1205;-73
2021/07/03 03:55:43;;;;;;;;;;;22.60;51.30;;;;;;516330;231;1073;-73
2021/07/03 03:57:44;;;;;;;;;;;22.70;51.10;;;;;;516324;230;1027;-73
2021/07/03 03:59:45;;;;;;;;;;;22.60;51.20;;;;;;516321;230;1258;-73
2021/07/03 04:01:47;;;;;;;;;;;22.70;51.10;;;;;;516324;230;1045;-73
2021/07/03 04:03:48;;;;;;;;;;;22.60;51.10;;;;;;516351;231;973;-73
2021/07/03 04:05:49;;;;;;;;;;;22.70;51.20;;;;;;516305;231;1232;-73
2021/07/03 04:07:51;;;;;;;;;;;22.60;51.20;;;;;;516346;230;2133;-73
2021/07/03 04:09:52;;;;;;;;;;;22.60;51.20;;;;;;516346;230;1216;-73
2021/07/03 04:11:55;;;;;;;;;;;22.60;51.20;;;;;;516370;230;1036;-73
2021/07/03 04:13:55;;;;;;;;;;;22.90;50.80;;;;;;516287;230;1394;-73
2021/07/03 04:15:56;;;;;;;;;;;22.70;50.80;;;;;;516267;231;1034;-73
2021/07/03 04:17:57;;;;;;;;;;;22.70;51.10;;;;;;516253;231;1006;-73
2021/07/03 04:19:59;;;;;;;;;;;22.70;51.20;;;;;;516289;230;1036;-73
2021/07/03 04:22:00;;;;;;;;;;;22.60;51.20;;;;;;516328;230;962;-73
2021/07/03 04:24:01;;;;;;;;;;;22.60;51.30;;;;;;516321;231;1166;-73
2021/07/03 04:26:03;;;;;;;;;;;22.60;51.30;;;;;;516298;230;1068;-73
2021/07/03 04:28:04;;;;;;;;;;;22.60;51.40;;;;;;516284;231;2133;-73
2021/07/03 04:30:05;;;;;;;;;;;22.60;51.40;;;;;;516301;230;1059;-73
2021/07/03 04:32:07;;;;;;;;;;;22.70;51.50;;;;;;516224;231;1065;-73
2021/07/03 04:34:08;;;;;;;;;;;22.60;51.50;;;;;;516309;230;1086;-73
2021/07/03 04:36:09;;;;;;;;;;;22.60;51.60;;;;;;516217;230;1031;-73
2021/07/03 04:38:11;;;;;;;;;;;22.60;51.60;;;;;;516446;230;1140;-73
2021/07/03 04:40:12;;;;;;;;;;;22.60;51.60;;;;;;516440;230;1103;-73
2021/07/03 04:42:13;;;;;;;;;;;22.70;51.60;;;;;;516246;230;954;-73
2021/07/03 04:44:16;;;;;;;;;;;22.70;51.50;;;;;;516382;230;1016;-73
2021/07/03 04:46:16;;;;;;;;;;;22.60;51.70;;;;;;516130;230;1458;-73
2021/07/03 04:48:17;;;;;;;;;;;22.70;51.80;;;;;;516310;231;2172;-73
2021/07/03 04:50:19;;;;;;;;;;;22.70;51.90;;;;;;516277;231;1046;-73
2021/07/03 04:52:20;;;;;;;;;;;22.70;51.80;;;;;;516410;230;928;-73
2021/07/03 04:54:21;;;;;;;;;;;22.70;51.80;;;;;;516349;231;1150;-73
2021/07/03 04:56:23;;;;;;;;;;;22.70;51.80;;;;;;516341;230;1224;-73
2021/07/03 04:58:24;;;;;;;;;;;22.70;51.90;;;;;;516314;230;1073;-73
2021/07/03 05:00:25;;;;;;;;;;;22.70;52.00;;;;;;516275;231;1289;-73
2021/07/03 05:02:26;;;;;;;;;;;22.70;52.10;;;;;;516233;230;935;-73
2021/07/03 05:04:28;;;;;;;;;;;22.70;52.00;;;;;;516315;230;966;-73
2021/07/03 05:06:29;;;;;;;;;;;22.70;52.00;;;;;;516269;231;1069;-73
2021/07/03 05:08:30;;;;;;;;;;;22.70;51.90;;;;;;516364;231;2133;-73
2021/07/03 05:10:32;;;;;;;;;;;22.70;52.10;;;;;;516353;231;1012;-73
2021/07/03 05:12:33;;;;;;;;;;;22.70;52.10;;;;;;516271;230;1039;-73
2021/07/03 05:14:35;;;;;;;;;;;23.00;51.60;;;;;;516521;230;1050;-73
2021/07/03 05:16:36;;;;;;;;;;;22.80;51.70;;;;;;516269;230;941;-73
2021/07/03 05:18:37;;;;;;;;;;;22.70;52.00;;;;;;516309;231;1120;-73
2021/07/03 05:20:39;;;;;;;;;;;22.70;52.00;;;;;;516307;230;967;-73
2021/07/03 05:22:40;;;;;;;;;;;22.70;52.10;;;;;;516348;230;1189;-73
2021/07/03 05:24:41;;;;;;;;;;;22.70;52.00;;;;;;516410;231;1158;-73
2021/07/03 05:26:42;;;;;;;;;;;22.70;52.20;;;;;;516286;230;1383;-73
2021/07/03 05:28:44;;;;;;;;;;;22.70;52.10;;;;;;516313;230;2125;-73
2021/07/03 05:30:45;;;;;;;;;;;22.70;52.10;;;;;;516346;230;980;-73
2021/07/03 05:32:46;;;;;;;;;;;22.70;52.10;;;;;;516375;231;1290;-73
2021/07/03 05:34:48;;;;;;;;;;;22.70;52.20;;;;;;516604;230;975;-73
2021/07/03 05:36:50;;;;;;;;;;;22.70;52.20;;;;;;516312;231;1061;-73
2021/07/03 05:38:51;;;;;;;;;;;22.70;52.20;;;;;;516327;231;1168;-73
2021/07/03 05:40:52;;;;;;;;;;;22.70;52.40;;;;;;516374;230;1014;-73
2021/07/03 05:42:53;;;;;;;;;;;22.60;52.50;;;;;;516467;230;974;-73
2021/07/03 05:44:54;;;;;;;;;;;22.70;52.50;;;;;;516589;230;990;-73
2021/07/03 05:46:56;;;;;;;;;;;22.60;52.50;;;;;;516297;231;1095;-73
2021/07/03 05:48:57;;;;;;;;;;;22.70;52.40;;;;;;516289;230;2121;-73
2021/07/03 05:50:58;;;;;;;;;;;22.70;52.50;;;;;;516327;231;1051;-73
2021/07/03 05:53:00;;;;;;;;;;;22.60;52.60;;;;;;516340;231;970;-73
2021/07/03 05:55:01;;;;;;;;;;;22.60;52.80;;;;;;516553;230;1154;-73
2021/07/03 05:57:03;;;;;;;;;;;22.60;52.70;;;;;;516285;230;1055;-73
2021/07/03 05:59:04;;;;;;;;;;;22.60;52.90;;;;;;516335;231;1040;-73
2021/07/03 06:01:05;;;;;;;;;;;22.60;52.80;;;;;;516260;231;941;-73
2021/07/03 06:03:07;;;;;;;;;;;22.60;52.80;;;;;;516309;231;956;-73
2021/07/03 06:05:08;;;;;;;;;;;22.70;52.80;;;;;;516364;230;952;-73
2021/07/03 06:07:09;;;;;;;;;;;22.60;52.90;;;;;;516286;230;1061;-73
2021/07/03 06:09:11;;;;;;;;;;;22.60;53.00;;;;;;516225;231;2125;-73
2021/07/03 06:11:12;;;;;;;;;;;22.60;52.90;;;;;;516341;230;1013;-73
2021/07/03 06:13:13;;;;;;;;;;;22.60;53.00;;;;;;516239;230;995;-73
2021/07/03 06:15:15;;;;;;;;;;;22.70;52.80;;;;;;516403;230;956;-73
2021/07/03 06:17:16;;;;;;;;;;;22.70;52.80;;;;;;516211;231;1220;-73
2021/07/03 06:19:20;;;;;;;;;;;22.70;52.80;;;;;;516352;231;1051;-73
2021/07/03 06:21:19;;;;;;;;;;;22.70;52.90;;;;;;516230;230;1313;-73
2021/07/03 06:23:20;;;;;;;;;;;22.70;52.90;;;;;;516387;230;1085;-73
2021/07/03 06:25:21;;;;;;;;;;;22.60;53.00;;;;;;516381;231;1327;-73
2021/07/03 06:27:22;;;;;;;;;;;22.70;53.00;;;;;;516205;230;1225;-73
2021/07/03 06:29:24;;;;;;;;;;;22.70;53.00;;;;;;516243;230;2160;-73
2021/07/03 06:31:25;;;;;;;;;;;22.60;53.10;;;;;;516340;230;999;-73
2021/07/03 06:33:26;;;;;;;;;;;22.60;53.20;;;;;;516279;231;1068;-73
2021/07/03 06:35:28;;;;;;;;;;;22.60;53.20;;;;;;516286;230;979;-73
2021/07/03 06:37:29;;;;;;;;;;;22.60;53.30;;;;;;516313;230;1111;-73
2021/07/03 06:39:30;;;;;;;;;;;22.40;53.40;;;;;;516258;231;1143;-73
2021/07/03 06:41:32;;;;;;;;;;;22.20;54.30;;;;;;516303;231;1036;-73
2021/07/03 06:43:33;;;;;;;;;;;21.90;54.90;;;;;;516314;230;980;-73
2021/07/03 06:45:34;;;;;;;;;;;21.80;55.40;;;;;;516338;230;1157;-73
2021/07/03 06:47:36;;;;;;;;;;;21.70;55.70;;;;;;516291;231;1003;-73
2021/07/03 06:49:37;;;;;;;;;;;21.60;56.00;;;;;;516374;230;2161;-73
2021/07/03 06:51:38;;;;;;;;;;;21.50;56.30;;;;;;516419;230;1066;-73
2021/07/03 06:53:40;;;;;;;;;;;21.50;56.50;;;;;;516279;231;1006;-73
2021/07/03 06:55:41;;;;;;;;;;;21.40;56.70;;;;;;516333;230;1179;-73
2021/07/03 06:57:42;;;;;;;;;;;21.40;56.80;;;;;;516207;230;1062;-73
2021/07/03 06:59:44;;;;;;;;;;;21.40;57.00;;;;;;516314;230;1027;-73
2021/07/03 07:01:45;;;;;;;;;;;21.30;57.10;;;;;;516296;230;1066;-73
2021/07/03 07:03:46;;;;;;;;;;;21.30;57.10;;;;;;516330;231;956;-73
2021/07/03 07:05:48;;;;;;;;;;;21.30;57.20;;;;;;516340;231;1029;-73
2021/07/03 07:07:49;;;;;;;;;;;21.30;57.20;;;;;;516359;230;1139;-73
2021/07/03 07:09:51;;;;;;;;;;;21.30;57.30;;;;;;516283;231;2173;-73
2021/07/03 07:11:52;;;;;;;;;;;21.30;57.30;;;;;;516320;230;1024;-73
2021/07/03 07:13:53;;;;;;;;;;;21.30;57.40;;;;;;516330;230;1022;-73
2021/07/03 07:15:54;;;;;;;;;;;21.20;57.40;;;;;;516327;230;1052;-73
2021/07/03 07:17:56;;;;;;;;;;;21.30;57.40;;;;;;516297;230;1042;-73
2021/07/03 07:19:57;;;;;;;;;;;21.30;57.40;;;;;;516410;230;947;-73
2021/07/03 07:21:58;;;;;;;;;;;21.30;57.40;;;;;;516439;230;1036;-73
2021/07/03 07:24:00;;;;;;;;;;;21.30;57.50;;;;;;516440;230;1190;-73
2021/07/03 07:26:01;;;;;;;;;;;21.20;57.50;;;;;;516382;230;1180;-73
2021/07/03 07:28:02;;;;;;;;;;;21.20;57.60;;;;;;516334;230;1080;-73
2021/07/03 07:30:04;;;;;;;;;;;21.20;57.60;;;;;;516313;230;2184;-73
2021/07/03 07:32:05;;;;;;;;;;;21.20;57.60;;;;;;516230;231;993;-73
2021/07/03 07:34:07;;;;;;;;;;;21.20;57.70;;;;;;516335;230;1001;-73
2021/07/03 07:36:08;;;;;;;;;;;21.10;57.80;;;;;;516233;231;1233;-72
2021/07/03 07:38:09;;;;;;;;;;;21.20;57.80;;;;;;516277;230;942;-72
2021/07/03 07:40:11;;;;;;;;;;;21.20;57.80;;;;;;512743;231;1309;-73
2021/07/03 07:42:12;;;;;;;;;;;21.20;57.90;;;;;;511559;231;991;-73
2021/07/03 07:44:13;;;;;;;;;;;21.10;57.90;;;;;;514709;231;1045;-73
2021/07/03 07:46:15;;;;;;;;;;;21.20;57.90;;;;;;514669;231;1203;-73
2021/07/03 07:48:16;;;;;;;;;;;21.10;57.90;;;;;;514689;231;1108;-73
2021/07/03 07:50:17;;;;;;;;;;;21.10;57.90;;;;;;514729;231;2177;-73
2021/07/03 07:52:19;;;;;;;;;;;21.20;58.00;;;;;;514760;231;1067;-73
2021/07/03 07:54:20;;;;;;;;;;;21.10;58.10;;;;;;514691;231;1032;-73
2021/07/03 07:56:21;;;;;;;;;;;21.10;58.10;;;;;;514965;231;1282;-73
2021/07/03 07:58:23;;;;;;;;;;;21.10;58.00;;;;;;516217;230;983;-73
2021/07/03 08:00:24;;;;;;;;;;;21.10;58.00;;;;;;516417;230;1076;-73
2021/07/03 08:02:25;;;;;;;;;;;21.10;58.00;;;;;;516240;230;1057;-73
2021/07/03 08:04:27;;;;;;;;;;;21.20;57.80;;;;;;516313;231;1039;-73
2021/07/03 08:06:28;;;;;;;;;;;21.40;57.40;;;;;;516348;230;1003;-73
2021/07/03 08:08:29;;;;;;;;;;;21.60;56.40;;;;;;516485;230;2134;-73
2021/07/03 08:10:31;;;;;;;;;;;21.90;55.60;;;;;;516292;230;1166;-73
2021/07/03 08:12:32;;;;;;;;;;;22.10;55.20;;;;;;516340;230;919;-73
2021/07/03 08:14:33;;;;;;;;;;;22.20;54.80;;;;;;516346;231;1057;-73
2021/07/03 08:16:35;;;;;;;;;;;22.20;54.40;;;;;;516441;230;1122;-73
2021/07/03 08:18:36;;;;;;;;;;;22.30;54.10;;;;;;516331;231;929;-73
2021/07/03 08:20:37;;;;;;;;;;;22.40;54.00;;;;;;516521;230;1020;-73
2021/07/03 08:22:39;;;;;;;;;;;22.50;53.60;;;;;;516359;230;920;-73
2021/07/03 08:24:40;;;;;;;;;;;22.40;53.50;;;;;;516448;230;1058;-73
2021/07/03 08:26:41;;;;;;;;;;;22.40;53.50;;;;;;516417;230;1165;-73
2021/07/03 08:28:43;;;;;;;;;;;22.50;53.20;;;;;;516351;231;2133;-73
2021/07/03 08:30:44;;;;;;;;;;;22.50;53.10;;;;;;516351;231;1007;-73
2021/07/03 08:32:45;;;;;;;;;;;22.60;53.00;;;;;;516264;231;1107;-73
2021/07/03 08:34:47;;;;;;;;;;;22.60;52.90;;;;;;516356;230;1101;-73
2021/07/03 08:36:48;;;;;;;;;;;22.60;52.80;;;;;;516403;230;1086;-73
2021/07/03 08:38:51;;;;;;;;;;;22.60;52.80;;;;;;516321;231;1019;-73
2021/07/03 08:40:51;;;;;;;;;;;22.50;52.70;;;;;;516280;230;1422;-73
2021/07/03 08:42:52;;;;;;;;;;;22.60;52.50;;;;;;516320;230;1074;-73
2021/07/03 08:44:54;;;;;;;;;;;22.60;52.40;;;;;;516294;231;986;-73
2021/07/03 08:46:55;;;;;;;;;;;22.50;52.50;;;;;;516278;231;1031;-73
2021/07/03 08:48:58;;;;;;;;;;;22.60;52.50;;;;;;516360;230;2184;-73
2021/07/03 08:50:58;;;;;;;;;;;22.70;52.30;;;;;;516268;230;1572;-73
2021/07/03 08:52:59;;;;;;;;;;;22.70;52.50;;;;;;516308;230;1021;-73
2021/07/03 08:55:00;;;;;;;;;;;22.70;52.30;;;;;;516297;230;1251;-73
2021/07/03 08:57:02;;;;;;;;;;;22.70;52.30;;;;;;516283;231;1154;-73
2021/07/03 08:59:03;;;;;;;;;;;22.60;52.40;;;;;;516372;231;1049;-73
2021/07/03 09:01:04;;;;;;;;;;;22.70;52.50;;;;;;516357;231;1068;-73
2021/07/03 09:03:06;;;;;;;;;;;22.60;52.50;;;;;;516373;231;1013;-73
2021/07/03 09:05:07;;;;;;;;;;;22.80;52.10;;;;;;516444;230;962;-73
2021/07/03 09:07:08;;;;;;;;;;;22.80;52.30;;;;;;516350;230;1091;-73
2021/07/03 09:09:10;;;;;;;;;;;22.70;52.40;;;;;;516334;230;2140;-73
2021/07/03 09:11:12;;;;;;;;;;;22.70;52.50;;;;;;516289;231;1132;-73
2021/07/03 09:13:12;;;;;;;;;;;22.60;52.40;;;;;;516243;230;1444;-73
2021/07/03 09:15:14;;;;;;;;;;;22.70;52.60;;;;;;516268;230;1028;-73
2021/07/03 09:17:16;;;;;;;;;;;22.70;52.50;;;;;;516288;230;1151;-73
2021/07/03 09:19:17;;;;;;;;;;;22.60;52.40;;;;;;516508;230;1009;-73
2021/07/03 09:21:18;;;;;;;;;;;22.60;52.40;;;;;;516296;230;1027;-73
2021/07/03 09:23:19;;;;;;;;;;;22.60;52.20;;;;;;516432;230;1024;-73
2021/07/03 09:25:21;;;;;;;;;;;22.60;52.00;;;;;;516332;230;932;-73
2021/07/03 09:27:22;;;;;;;;;;;22.70;52.00;;;;;;516331;230;1150;-73
2021/07/03 09:29:23;;;;;;;;;;;22.70;52.10;;;;;;516330;230;2176;-73
2021/07/03 09:31:25;;;;;;;;;;;22.70;52.00;;;;;;516356;230;930;-73
2021/07/03 09:33:26;;;;;;;;;;;22.60;52.00;;;;;;516218;230;1019;-73
2021/07/03 09:35:27;;;;;;;;;;;22.70;52.10;;;;;;516292;230;961;-73
2021/07/03 09:37:29;;;;;;;;;;;22.60;52.30;;;;;;516340;231;1090;-73
2021/07/03 09:39:30;;;;;;;;;;;22.60;52.30;;;;;;516291;231;949;-73
2021/07/03 09:41:31;;;;;;;;;;;22.60;52.20;;;;;;516298;230;1142;-73
2021/07/03 09:43:33;;;;;;;;;;;22.70;52.00;;;;;;516325;230;981;-73
2021/07/03 09:45:34;;;;;;;;;;;22.70;52.00;;;;;;516254;230;1074;-73
2021/07/03 09:47:35;;;;;;;;;;;22.70;52.10;;;;;;516334;230;1091;-73
2021/07/03 09:49:37;;;;;;;;;;;22.70;52.00;;;;;;516270;230;2188;-73
2021/07/03 09:51:38;;;;;;;;;;;22.70;51.70;;;;;;516273;231;1045;-73
2021/07/03 09:53:39;;;;;;;;;;;22.70;51.70;;;;;;516336;230;1066;-73
2021/07/03 09:55:41;;;;;;;;;;;22.70;51.60;;;;;;516443;230;944;-73
2021/07/03 09:57:42;;;;;;;;;;;22.70;51.70;;;;;;516358;230;1150;-73
2021/07/03 09:59:43;;;;;;;;;;;22.70;51.70;;;;;;516365;231;951;-73
2021/07/03 10:01:45;;;;;;;;;;;22.70;51.80;;;;;;516379;230;1161;-73
2021/07/03 10:03:46;;;;;;;;;;;22.80;51.70;;;;;;516328;231;1004;-73
2021/07/03 10:05:47;;;;;;;;;;;22.80;51.30;;;;;;516346;230;1019;-73
2021/07/03 10:07:49;;;;;;;;;;;22.80;51.60;;;;;;516290;230;1138;-73
2021/07/03 10:09:50;;;;;;;;;;;22.70;51.80;;;;;;516379;230;2169;-73
2021/07/03 10:11:52;;;;;;;;;;;22.70;51.80;;;;;;516314;230;1194;-73
2021/07/03 10:13:53;;;;;;;;;;;22.70;51.80;;;;;;516314;230;1023;-73
2021/07/03 10:15:54;;;;;;;;;;;22.70;52.00;;;;;;516283;231;1022;-73
2021/07/03 10:17:56;;;;;;;;;;;22.70;51.70;;;;;;516306;231;1007;-73
2021/07/03 10:19:57;;;;;;;;;;;22.70;51.70;;;;;;516300;231;1070;-73
2021/07/03 10:21:58;;;;;;;;;;;22.80;51.50;;;;;;516251;230;925;-73
2021/07/03 10:24:00;;;;;;;;;;;22.80;51.60;;;;;;516343;231;952;-73
2021/07/03 10:26:01;;;;;;;;;;;22.80;51.40;;;;;;516296;230;1036;-73
2021/07/03 10:28:02;;;;;;;;;;;22.80;51.30;;;;;;516379;230;1279;-73
2021/07/03 10:30:04;;;;;;;;;;;22.80;51.20;;;;;;516254;230;2176;-73
2021/07/03 10:32:05;;;;;;;;;;;22.70;51.10;;;;;;516219;231;949;-73
2021/07/03 10:34:06;;;;;;;;;;;22.80;51.10;;;;;;516267;230;1021;-73
2021/07/03 10:36:08;;;;;;;;;;;22.80;51.20;;;;;;516181;231;931;-73
2021/07/03 10:38:09;;;;;;;;;;;22.70;51.20;;;;;;516303;230;1088;-73
2021/07/03 10:40:10;;;;;;;;;;;22.70;51.40;;;;;;516257;231;1015;-73
2021/07/03 10:42:11;;;;;;;;;;;22.80;51.40;;;;;;516281;230;1098;-73
2021/07/03 10:44:13;;;;;;;;;;;22.80;51.20;;;;;;516289;230;1040;-73
2021/07/03 10:46:14;;;;;;;;;;;22.80;51.00;;;;;;516237;230;1018;-73
2021/07/03 10:48:17;;;;;;;;;;;22.80;50.90;;;;;;516417;230;1025;-73
2021/07/03 10:50:19;;;;;;;;;;;22.80;50.80;;;;;;516276;230;2176;-73
2021/07/03 10:52:20;;;;;;;;;;;22.90;50.80;;;;;;516278;230;1075;-73
2021/07/03 10:54:23;;;;;;;;;;;22.70;50.80;;;;;;516338;231;933;-73
2021/07/03 10:56:23;;;;;;;;;;;22.80;50.90;;;;;;516177;230;1345;-73
2021/07/03 10:58:24;;;;;;;;;;;22.70;50.80;;;;;;516374;231;1179;-73
2021/07/03 11:00:25;;;;;;;;;;;22.70;51.10;;;;;;516394;231;1185;-73
2021/07/03 11:02:27;;;;;;;;;;;22.70;51.10;;;;;;516348;230;1067;-73
2021/07/03 11:04:28;;;;;;;;;;;22.90;50.90;;;;;;516402;230;1099;-73
2021/07/03 11:06:29;;;;;;;;;;;22.70;50.80;;;;;;516252;231;1210;-73
2021/07/03 11:08:34;;;;;;;;;;;22.80;50.90;;;;;;516337;230;991;-73
2021/07/03 11:10:32;;;;;;;;;;;22.70;51.10;;;;;;516042;230;2173;-73
2021/07/03 11:12:33;;;;;;;;;;;22.80;51.20;;;;;;516297;230;1182;-73
2021/07/03 11:14:35;;;;;;;;;;;22.70;51.20;;;;;;516345;230;937;-73
2021/07/03 11:16:36;;;;;;;;;;;22.60;51.40;;;;;;516165;231;1187;-73
2021/07/03 11:18:37;;;;;;;;;;;22.60;51.40;;;;;;516337;230;1028;-73
2021/07/03 11:20:40;;;;;;;;;;;22.60;51.40;;;;;;516381;230;957;-73
2021/07/03 11:22:41;;;;;;;;;;;22.60;51.50;;;;;;516329;231;1773;-73
2021/07/03 11:24:42;;;;;;;;;;;22.60;51.40;;;;;;516324;231;1049;-73
2021/07/03 11:26:44;;;;;;;;;;;22.60;51.30;;;;;;516287;231;1158;-73
2021/07/03 11:28:45;;;;;;;;;;;22.60;51.20;;;;;;516356;230;1170;-73
2021/07/03 11:30:46;;;;;;;;;;;22.60;51.10;;;;;;516283;231;2181;-73
2021/07/03 11:32:48;;;;;;;;;;;22.60;51.10;;;;;;516353;230;1153;-73
2021/07/03 11:34:49;;;;;;;;;;;22.60;51.00;;;;;;516327;230;944;-73
2021/07/03 11:36:50;;;;;;;;;;;22.60;50.90;;;;;;516318;230;1057;-73
2021/07/03 11:38:52;;;;;;;;;;;22.60;51.20;;;;;;516312;231;933;-73
2021/07/03 11:40:53;;;;;;;;;;;22.60;51.30;;;;;;516276;231;1050;-73
2021/07/03 11:42:54;;;;;;;;;;;22.60;51.30;;;;;;514380;230;1309;-73
2021/07/03 11:44:56;;;;;;;;;;;22.50;51.30;;;;;;510084;232;1022;-73
2021/07/03 11:46:57;;;;;;;;;;;22.50;51.20;;;;;;515671;231;1067;-73
2021/07/03 11:48:59;;;;;;;;;;;22.60;51.10;;;;;;516267;231;972;-73
2021/07/03 11:51:00;;;;;;;;;;;22.50;50.90;;;;;;516250;230;2121;-73
2021/07/03 11:53:01;;;;;;;;;;;22.60;50.80;;;;;;516217;231;1032;-73
2021/07/03 11:55:02;;;;;;;;;;;22.60;50.70;;;;;;516332;230;999;-73
2021/07/03 11:57:04;;;;;;;;;;;22.60;50.80;;;;;;516241;231;1062;-73
2021/07/03 11:59:05;;;;;;;;;;;22.60;50.90;;;;;;516340;230;1178;-73